Time;durP1;ratioP1;P1;durP2;ratioP2;P2;SDS_P1;SDS_P2;PMS_P1;PMS_P2;Temp;Humidity;BMP_temperature;BMP_pressure;BME280_temperature;BME280_humidity;BME280_pressure;Samples;Min_cycle;Max_cycle;Signal;HPM_P1;HPM_P2
2020/12/16 00:01:43;;;;;;;38.60;22.00;;;5.10;99.90;;;;;;5019239;28;39025;-77
2020/12/16 00:04:10;;;;;;;44.67;25.63;;;5.20;99.90;;;;;;5015249;28;37447;-77
2020/12/16 00:06:36;;;;;;;53.63;29.30;;;5.40;99.90;;;;;;5033099;28;40899;-77
2020/12/16 00:09:02;;;;;;;39.77;24.80;;;5.50;99.90;;;;;;5020560;28;37512;-77
2020/12/16 00:11:28;;;;;;;58.00;31.50;;;5.30;99.90;;;;;;5022275;28;38293;-77
2020/12/16 00:13:54;;;;;;;51.70;30.73;;;5.20;99.90;;;;;;5013107;28;37987;-77
2020/12/16 00:16:20;;;;;;;64.07;32.17;;;5.20;99.90;;;;;;5020447;28;39598;-77
2020/12/16 00:18:46;;;;;;;33.37;21.90;;;5.10;99.90;;;;;;5034924;28;38105;-77
2020/12/16 00:21:12;;;;;;;44.80;23.57;;;5.00;99.90;;;;;;5015366;28;37118;-77
2020/12/16 00:23:38;;;;;;;47.23;26.07;;;4.90;99.90;;;;;;5016737;28;36663;-77
2020/12/16 00:26:04;;;;;;;52.30;22.20;;;4.80;99.90;;;;;;5014450;28;39365;-77
2020/12/16 00:28:30;;;;;;;38.00;23.73;;;4.70;99.90;;;;;;5015737;28;38612;-77
2020/12/16 00:30:56;;;;;;;54.40;27.70;;;4.60;99.90;;;;;;5031946;28;37049;-77
2020/12/16 00:33:22;;;;;;;41.57;25.20;;;4.60;99.90;;;;;;5015231;28;38220;-77
2020/12/16 00:35:49;;;;;;;31.03;17.73;;;4.60;99.90;;;;;;5019675;28;37441;-77
2020/12/16 00:38:15;;;;;;;46.93;24.57;;;4.60;99.90;;;;;;5019198;28;37403;-77
2020/12/16 00:40:41;;;;;;;29.40;19.73;;;4.50;99.90;;;;;;5031503;28;37276;-77
2020/12/16 00:43:07;;;;;;;43.20;26.10;;;4.60;99.90;;;;;;5041651;28;36497;-77
2020/12/16 00:45:33;;;;;;;35.37;23.97;;;4.70;99.90;;;;;;5014904;28;37916;-76
2020/12/16 00:47:59;;;;;;;46.63;27.13;;;4.80;99.90;;;;;;5000875;28;39003;-77
2020/12/16 00:50:25;;;;;;;45.43;28.13;;;5.00;99.90;;;;;;4997772;28;38431;-77
2020/12/16 00:52:51;;;;;;;49.03;29.80;;;5.10;99.90;;;;;;5035873;28;36595;-78
2020/12/16 00:55:17;;;;;;;62.90;31.43;;;5.20;99.90;;;;;;5007497;28;38173;-77
2020/12/16 00:57:44;;;;;;;50.33;27.40;;;5.20;99.90;;;;;;5004966;28;38245;-77
2020/12/16 01:00:11;;;;;;;33.07;23.23;;;5.20;99.90;;;;;;5012211;28;38326;-77
2020/12/16 01:02:42;;;;;;;52.07;27.87;;;5.10;99.90;;;;;;5030703;28;37655;-77
2020/12/16 01:05:08;;;;;;;61.77;31.90;;;5.10;99.90;;;;;;5037178;28;37723;-77
2020/12/16 01:07:37;;;;;;;83.50;38.10;;;5.10;99.90;;;;;;5023804;28;39358;-77
2020/12/16 01:10:03;;;;;;;73.03;36.33;;;5.20;99.90;;;;;;5024876;28;37104;-77
2020/12/16 01:12:30;;;;;;;41.23;25.07;;;5.30;99.90;;;;;;5035858;28;36395;-78
2020/12/16 01:14:56;;;;;;;50.97;30.77;;;5.40;99.90;;;;;;5040413;28;38658;-77
2020/12/16 01:17:22;;;;;;;51.67;29.20;;;5.60;99.90;;;;;;5026952;28;37500;-77
2020/12/16 01:19:48;;;;;;;48.77;28.43;;;5.70;99.90;;;;;;5031869;28;37001;-77
2020/12/16 01:22:14;;;;;;;42.43;26.30;;;5.70;99.90;;;;;;5023099;28;38392;-78
2020/12/16 01:24:40;;;;;;;64.90;32.77;;;5.70;99.90;;;;;;5028523;28;38919;-77
2020/12/16 01:27:06;;;;;;;62.67;32.70;;;5.60;99.90;;;;;;5027519;28;38763;-77
2020/12/16 01:29:32;;;;;;;56.87;31.00;;;5.50;99.90;;;;;;5024591;28;38166;-77
2020/12/16 01:31:58;;;;;;;34.03;21.23;;;5.40;99.90;;;;;;5027675;28;38110;-77
2020/12/16 01:34:24;;;;;;;45.40;24.70;;;5.30;99.90;;;;;;5025424;28;37457;-77
2020/12/16 01:36:50;;;;;;;87.90;34.17;;;5.30;99.90;;;;;;5017700;28;38259;-77
2020/12/16 01:39:17;;;;;;;59.70;29.60;;;5.30;99.90;;;;;;5021073;28;38292;-77
2020/12/16 01:41:48;;;;;;;42.23;24.30;;;5.40;99.90;;;;;;5025147;28;37274;-77
2020/12/16 01:44:17;;;;;;;72.77;33.47;;;5.40;99.90;;;;;;5015287;28;37988;-77
2020/12/16 01:46:54;;;;;;;44.70;29.13;;;5.40;99.90;;;;;;5038749;28;38054;-77
2020/12/16 01:49:22;;;;;;;62.07;31.87;;;5.40;99.90;;;;;;5022840;28;38524;-77
2020/12/16 01:51:53;;;;;;;47.57;26.27;;;5.50;99.90;;;;;;5022878;28;38123;-77
2020/12/16 01:54:22;;;;;;;62.13;30.83;;;5.60;99.90;;;;;;5024221;28;37457;-77
2020/12/16 01:56:55;;;;;;;47.57;28.53;;;5.60;99.90;;;;;;5027024;28;37698;-77
2020/12/16 01:59:22;;;;;;;83.03;40.23;;;5.50;99.90;;;;;;5021295;28;38250;-77
2020/12/16 02:01:53;;;;;;;51.93;29.77;;;5.60;99.90;;;;;;5020581;28;38201;-78
2020/12/16 02:04:24;;;;;;;48.80;28.20;;;5.70;99.90;;;;;;5023090;28;38809;-77
2020/12/16 02:06:51;;;;;;;55.83;30.90;;;5.70;99.90;;;;;;5032154;28;37267;-77
2020/12/16 02:09:20;;;;;;;53.03;30.80;;;5.60;99.90;;;;;;5022343;28;38179;-78
2020/12/16 02:11:47;;;;;;;44.17;28.60;;;5.50;99.90;;;;;;5022798;28;36504;-77
2020/12/16 02:14:13;;;;;;;45.60;27.80;;;5.50;99.90;;;;;;5018113;28;37242;-77
2020/12/16 02:16:40;;;;;;;109.90;47.20;;;5.50;99.90;;;;;;5035362;28;37885;-77
2020/12/16 02:19:08;;;;;;;45.67;27.77;;;5.40;99.90;;;;;;5027782;28;38999;-77
2020/12/16 02:21:34;;;;;;;100.43;43.10;;;5.40;99.90;;;;;;5031817;28;36632;-77
2020/12/16 02:24:08;;;;;;;42.03;26.40;;;5.30;99.90;;;;;;5017671;28;37602;-78
2020/12/16 02:26:35;;;;;;;65.50;32.77;;;5.20;99.90;;;;;;5013612;28;48686;-77
2020/12/16 02:29:03;;;;;;;55.37;32.13;;;5.20;99.90;;;;;;5016917;28;37047;-77
2020/12/16 02:31:31;;;;;;;92.10;42.17;;;5.20;99.90;;;;;;5017673;28;36445;-78
2020/12/16 02:33:57;;;;;;;44.33;26.37;;;5.20;99.90;;;;;;5030812;28;38007;-77
2020/12/16 02:36:23;;;;;;;45.03;27.07;;;5.20;99.90;;;;;;5011950;28;37105;-77
2020/12/16 02:38:51;;;;;;;52.17;30.13;;;5.20;99.90;;;;;;5020842;28;37885;-77
2020/12/16 02:41:21;;;;;;;53.73;29.87;;;5.30;99.90;;;;;;5024669;28;36394;-77
2020/12/16 02:43:48;;;;;;;43.30;28.07;;;5.30;99.90;;;;;;5024667;28;38853;-77
2020/12/16 02:46:14;;;;;;;51.57;30.47;;;5.20;99.90;;;;;;5030835;28;38486;-77
2020/12/16 02:48:40;;;;;;;65.50;36.40;;;5.20;99.90;;;;;;5021674;28;38105;-77
2020/12/16 02:51:07;;;;;;;67.67;35.90;;;5.30;99.90;;;;;;5019475;28;36844;-78
2020/12/16 02:53:33;;;;;;;83.50;42.73;;;5.30;99.90;;;;;;5034203;28;37995;-77
2020/12/16 02:55:59;;;;;;;88.07;42.50;;;5.40;99.90;;;;;;5024870;28;37687;-77
2020/12/16 02:58:26;;;;;;;65.60;35.67;;;5.30;99.90;;;;;;5022054;28;38324;-77
2020/12/16 03:00:52;;;;;;;54.43;33.40;;;5.30;99.90;;;;;;5018056;28;36670;-78
2020/12/16 03:03:18;;;;;;;54.17;34.90;;;5.30;99.90;;;;;;5033103;28;37859;-78
2020/12/16 03:05:45;;;;;;;51.97;31.63;;;5.20;99.90;;;;;;5021085;28;38479;-77
2020/12/16 03:08:11;;;;;;;52.13;34.30;;;5.20;99.90;;;;;;5020387;28;37281;-77
2020/12/16 03:10:37;;;;;;;88.17;46.37;;;5.30;99.90;;;;;;5016398;28;37585;-77
2020/12/16 03:13:05;;;;;;;68.03;38.50;;;5.20;99.90;;;;;;5020787;28;37778;-77
2020/12/16 03:15:32;;;;;;;51.37;31.07;;;5.20;99.90;;;;;;5023074;28;38538;-77
2020/12/16 03:17:58;;;;;;;92.27;48.20;;;5.30;99.90;;;;;;5017766;28;38313;-77
2020/12/16 03:20:24;;;;;;;74.53;39.73;;;5.30;99.90;;;;;;5047382;28;37380;-78
2020/12/16 03:22:50;;;;;;;96.10;47.47;;;5.20;99.90;;;;;;5025371;28;38347;-78
2020/12/16 03:25:17;;;;;;;66.47;40.47;;;5.20;99.90;;;;;;5023967;28;41177;-77
2020/12/16 03:27:43;;;;;;;52.43;34.70;;;5.20;99.90;;;;;;5026953;28;36888;-77
2020/12/16 03:30:09;;;;;;;84.93;46.53;;;5.20;99.90;;;;;;5021361;28;36032;-77
2020/12/16 03:32:35;;;;;;;67.90;40.20;;;5.30;99.90;;;;;;5039147;28;37683;-77
2020/12/16 03:35:02;;;;;;;68.20;42.57;;;5.50;99.90;;;;;;5037098;28;37026;-78
2020/12/16 03:37:28;;;;;;;119.43;59.13;;;5.60;99.90;;;;;;5024279;28;46970;-77
2020/12/16 03:39:54;;;;;;;74.93;45.80;;;5.60;99.90;;;;;;5021426;28;37295;-77
2020/12/16 03:42:20;;;;;;;76.90;47.17;;;5.70;99.90;;;;;;5034028;28;37741;-77
2020/12/16 03:44:46;;;;;;;87.97;50.30;;;5.70;99.90;;;;;;5016397;28;37344;-77
2020/12/16 03:47:14;;;;;;;88.50;50.27;;;5.80;99.90;;;;;;4999982;28;37222;-77
2020/12/16 03:49:40;;;;;;;115.93;56.93;;;5.90;99.90;;;;;;5009848;28;36669;-78
2020/12/16 03:52:06;;;;;;;88.67;48.53;;;5.90;99.90;;;;;;5011264;28;37518;-77
2020/12/16 03:54:33;;;;;;;150.13;58.97;;;6.00;99.90;;;;;;5036977;28;37823;-77
2020/12/16 03:56:59;;;;;;;236.07;57.93;;;6.00;99.90;;;;;;5006387;28;36736;-77
2020/12/16 03:59:25;;;;;;;208.70;60.50;;;6.00;99.90;;;;;;4998069;28;37445;-77
2020/12/16 04:01:51;;;;;;;285.80;70.10;;;6.00;99.90;;;;;;5010749;28;38079;-77
2020/12/16 04:04:17;;;;;;;188.03;58.70;;;6.00;99.90;;;;;;5023071;28;39714;-77
2020/12/16 04:06:43;;;;;;;285.43;55.50;;;6.00;99.90;;;;;;5037112;28;37102;-77
2020/12/16 04:09:10;;;;;;;240.17;59.37;;;6.00;99.90;;;;;;5039814;28;37988;-78
2020/12/16 04:11:36;;;;;;;100.07;43.10;;;6.00;99.90;;;;;;5023870;28;38100;-77
2020/12/16 04:14:02;;;;;;;123.30;46.03;;;6.00;99.90;;;;;;5018005;28;38185;-77
2020/12/16 04:16:29;;;;;;;155.83;55.13;;;6.10;99.90;;;;;;5024096;28;38165;-78
2020/12/16 04:18:55;;;;;;;220.00;56.23;;;6.00;99.90;;;;;;5061518;28;35638;-78
2020/12/16 04:21:21;;;;;;;143.80;47.57;;;6.00;99.90;;;;;;5044319;28;38395;-77
2020/12/16 04:23:47;;;;;;;150.27;52.47;;;6.00;99.90;;;;;;5028401;28;38547;-77
2020/12/16 04:26:13;;;;;;;117.17;45.17;;;6.00;99.90;;;;;;5028740;28;38049;-78
2020/12/16 04:28:40;;;;;;;156.03;50.63;;;6.00;99.90;;;;;;5037161;28;36778;-77
2020/12/16 04:31:09;;;;;;;162.03;51.27;;;6.00;99.90;;;;;;5033230;28;38866;-77
2020/12/16 04:33:36;;;;;;;159.43;49.83;;;6.00;99.90;;;;;;5029035;28;39914;-78
2020/12/16 04:36:02;;;;;;;139.93;48.87;;;6.00;99.90;;;;;;5028637;28;38095;-77
2020/12/16 04:38:28;;;;;;;165.70;51.17;;;6.00;99.90;;;;;;5025344;28;37491;-77
2020/12/16 04:40:55;;;;;;;119.53;45.13;;;6.00;99.90;;;;;;5039383;28;37741;-77
2020/12/16 04:43:23;;;;;;;186.87;53.67;;;6.00;99.90;;;;;;5024480;28;38595;-77
2020/12/16 04:45:50;;;;;;;112.03;44.07;;;6.00;99.90;;;;;;5020812;28;37073;-76
2020/12/16 04:48:17;;;;;;;183.97;51.07;;;6.00;99.90;;;;;;5026874;28;37650;-77
2020/12/16 04:50:45;;;;;;;101.97;43.43;;;6.00;99.90;;;;;;5024916;28;38633;-77
2020/12/16 04:53:13;;;;;;;126.87;47.60;;;6.10;99.90;;;;;;5027976;28;37214;-77
2020/12/16 04:55:41;;;;;;;146.17;47.47;;;6.10;99.90;;;;;;5041534;28;37223;-77
2020/12/16 04:58:10;;;;;;;82.93;39.60;;;6.10;99.90;;;;;;5024413;28;37710;-77
2020/12/16 05:00:37;;;;;;;107.60;39.80;;;6.10;99.90;;;;;;5025466;28;37952;-77
2020/12/16 05:03:07;;;;;;;91.87;40.77;;;6.10;99.90;;;;;;5033899;28;37517;-77
2020/12/16 05:05:34;;;;;;;162.60;47.97;;;6.10;99.90;;;;;;5030317;28;36960;-77
2020/12/16 05:08:16;;;;;;;110.40;39.43;;;6.20;99.90;;;;;;5030248;28;37384;-77
2020/12/16 05:10:44;;;;;;;99.80;36.90;;;6.10;99.90;;;;;;5039024;28;47426;-77
2020/12/16 05:13:13;;;;;;;115.50;36.87;;;6.20;99.90;;;;;;5032236;28;38105;-77
2020/12/16 05:15:40;;;;;;;80.83;34.73;;;6.20;99.90;;;;;;5024796;28;38291;-77
2020/12/16 05:18:15;;;;;;;71.27;34.23;;;6.20;99.90;;;;;;5025067;28;36210;-77
2020/12/16 05:20:50;;;;;;;147.50;42.67;;;6.20;99.90;;;;;;5021751;28;38750;-77
2020/12/16 05:23:17;;;;;;;78.47;33.10;;;6.20;99.90;;;;;;5022493;28;38077;-77
2020/12/16 05:26:19;;;;;;;119.83;37.87;;;6.30;99.90;;;;;;5025222;28;36835;-78
2020/12/16 05:28:49;;;;;;;61.20;31.87;;;6.30;99.90;;;;;;4952040;28;47230;-76
2020/12/16 05:31:15;;;;;;;93.00;34.90;;;6.30;99.90;;;;;;4996118;28;39934;-78
2020/12/16 05:33:43;;;;;;;73.00;31.40;;;6.30;99.90;;;;;;5005772;28;38875;-78
2020/12/16 05:36:10;;;;;;;108.40;33.00;;;6.30;99.90;;;;;;5009638;28;37189;-77
2020/12/16 05:38:57;;;;;;;137.30;37.57;;;6.40;99.90;;;;;;5018929;28;37709;-77
2020/12/16 05:41:36;;;;;;;69.63;25.73;;;6.40;99.90;;;;;;5000927;28;38741;-79
2020/12/16 05:44:22;;;;;;;138.27;33.33;;;6.40;99.90;;;;;;5037501;28;37499;-78
2020/12/16 05:46:50;;;;;;;117.97;30.33;;;6.40;99.90;;;;;;5043956;28;38899;-77
2020/12/16 05:49:30;;;;;;;117.37;28.53;;;6.40;99.90;;;;;;5024241;28;36882;-78
2020/12/16 05:51:58;;;;;;;50.37;24.87;;;6.40;99.90;;;;;;5021511;28;38952;-77
2020/12/16 05:54:24;;;;;;;123.50;31.07;;;6.50;99.90;;;;;;5055022;28;36288;-79
2020/12/16 05:57:19;;;;;;;117.67;30.70;;;6.50;99.90;;;;;;5031332;28;37945;-79
2020/12/16 06:00:11;;;;;;;86.43;28.93;;;6.50;99.90;;;;;;5025934;28;48983;-78
2020/12/16 06:02:43;;;;;;;92.90;28.70;;;6.50;99.90;;;;;;5071727;28;45963;-79
2020/12/16 06:05:15;;;;;;;93.63;27.73;;;6.50;99.90;;;;;;5032611;28;38910;-79
2020/12/16 06:07:46;;;;;;;102.18;27.90;;;6.50;99.90;;;;;;5057253;28;38235;-77
2020/12/16 06:10:13;;;;;;;126.30;31.57;;;6.50;99.90;;;;;;5026580;28;37056;-76
2020/12/16 06:12:41;;;;;;;134.40;31.87;;;6.50;99.90;;;;;;5028100;28;38814;-77
2020/12/16 06:15:15;;;;;;;87.47;29.93;;;6.60;99.90;;;;;;5038215;28;37652;-77
2020/12/16 06:17:45;;;;;;;95.73;30.17;;;6.60;99.90;;;;;;5027869;28;37865;-77
2020/12/16 06:20:17;;;;;;;94.73;30.90;;;6.60;99.90;;;;;;5025233;28;36499;-77
2020/12/16 06:22:46;;;;;;;82.22;27.40;;;6.60;99.90;;;;;;5020527;28;41546;-77
2020/12/16 06:25:16;;;;;;;132.53;30.80;;;6.60;99.90;;;;;;5023433;28;37882;-78
2020/12/16 06:27:44;;;;;;;102.57;29.27;;;6.60;99.90;;;;;;5026951;28;37010;-77
2020/12/16 06:30:16;;;;;;;82.00;27.57;;;6.60;99.90;;;;;;5027189;28;36490;-78
2020/12/16 06:32:47;;;;;;;83.95;28.83;;;6.60;99.90;;;;;;5026042;28;39085;-78
2020/12/16 06:35:18;;;;;;;135.57;30.73;;;6.60;99.90;;;;;;5025571;28;37167;-77
2020/12/16 06:37:45;;;;;;;84.37;25.33;;;6.60;99.90;;;;;;5038258;28;38732;-77
2020/12/16 06:40:11;;;;;;;106.07;29.37;;;6.60;99.90;;;;;;5023797;28;36801;-77
2020/12/16 06:42:37;;;;;;;133.90;31.90;;;6.60;99.90;;;;;;5023562;28;39533;-78
2020/12/16 06:45:14;;;;;;;94.50;29.43;;;6.60;99.90;;;;;;5029550;28;38491;-78
2020/12/16 06:47:42;;;;;;;110.87;29.53;;;6.60;99.90;;;;;;5022811;28;38452;-76
2020/12/16 06:50:21;;;;;;;93.77;30.90;;;6.60;99.90;;;;;;5019300;28;35288;-75
2020/12/16 06:52:48;;;;;;;109.83;30.30;;;6.60;99.90;;;;;;5026580;28;38984;-78
2020/12/16 06:55:15;;;;;;;170.37;34.90;;;6.60;99.90;;;;;;5023851;28;38411;-77
2020/12/16 06:57:46;;;;;;;92.53;29.00;;;6.60;99.90;;;;;;5024928;28;39070;-79
2020/12/16 07:00:23;;;;;;;124.80;32.50;;;6.60;99.90;;;;;;5013438;28;36772;-78
2020/12/16 07:02:50;;;;;;;87.47;29.63;;;6.70;99.90;;;;;;5017349;28;38172;-78
2020/12/16 07:05:39;;;;;;;96.30;28.90;;;6.70;99.90;;;;;;5019021;28;38655;-78
2020/12/16 07:08:06;;;;;;;107.50;30.93;;;6.70;99.90;;;;;;5018581;28;38189;-77
2020/12/16 07:10:36;;;;;;;128.23;32.07;;;6.70;99.90;;;;;;5022692;28;37834;-77
2020/12/16 07:13:19;;;;;;;151.17;35.23;;;6.70;99.90;;;;;;5044027;28;37793;-77
2020/12/16 07:16:20;;;;;;;137.73;33.00;;;6.70;99.90;;;;;;5019380;28;47598;-78
2020/12/16 07:18:47;;;;;;;91.53;31.40;;;6.70;99.90;;;;;;4976412;28;48835;-78
2020/12/16 07:21:19;;;;;;;122.13;33.83;;;6.70;99.90;;;;;;5009789;28;36798;-78
2020/12/16 07:23:58;;;;;;;125.60;34.97;;;6.80;99.90;;;;;;5012142;28;39482;-78
2020/12/16 07:26:27;;;;;;;83.30;31.00;;;6.80;99.90;;;;;;5040673;28;37645;-78
2020/12/16 07:28:54;;;;;;;129.67;36.47;;;6.80;99.90;;;;;;5018801;28;39064;-78
2020/12/16 07:31:21;;;;;;;145.20;37.23;;;6.80;99.90;;;;;;5020270;28;37477;-78
2020/12/16 07:33:48;;;;;;;90.30;32.57;;;6.80;99.90;;;;;;5032096;28;39115;-78
2020/12/16 07:36:19;;;;;;;115.60;35.67;;;6.90;99.90;;;;;;5023580;28;37353;-78
2020/12/16 07:38:55;;;;;;;145.73;35.03;;;6.90;99.90;;;;;;5018362;28;38151;-78
2020/12/16 07:41:26;;;;;;;199.60;42.33;;;6.90;99.90;;;;;;5038023;28;36525;-79
2020/12/16 07:43:52;;;;;;;152.53;37.63;;;6.90;99.90;;;;;;5026276;28;37714;-77
2020/12/16 07:46:21;;;;;;;146.50;35.10;;;6.90;99.90;;;;;;5008431;28;38796;-78
2020/12/16 07:48:47;;;;;;;162.70;36.27;;;6.90;99.90;;;;;;5022529;28;40801;-78
2020/12/16 07:51:13;;;;;;;146.73;35.97;;;6.90;99.90;;;;;;5019274;28;38486;-78
2020/12/16 07:53:50;;;;;;;93.37;32.40;;;6.90;99.90;;;;;;5024484;28;39903;-78
2020/12/16 07:56:19;;;;;;;131.90;37.97;;;6.90;99.90;;;;;;5048057;28;37458;-78
2020/12/16 07:58:45;;;;;;;178.47;40.80;;;6.90;99.90;;;;;;5004639;28;37161;-78
2020/12/16 08:01:14;;;;;;;166.00;39.57;;;7.00;99.90;;;;;;4998953;28;36437;-76
2020/12/16 08:03:43;;;;;;;203.50;43.07;;;7.00;99.90;;;;;;5023178;28;38028;-77
2020/12/16 08:06:09;;;;;;;173.17;42.93;;;7.00;99.90;;;;;;5021801;28;38399;-77
2020/12/16 08:08:52;;;;;;;135.43;40.67;;;7.00;99.90;;;;;;4997966;28;37905;-77
2020/12/16 08:11:20;;;;;;;142.23;42.45;;;7.00;99.90;;;;;;4998649;28;37215;-77
2020/12/16 08:13:47;;;;;;;163.17;44.33;;;7.00;99.90;;;;;;5014258;28;40145;-77
2020/12/16 08:16:14;;;;;;;139.47;43.73;;;7.10;99.90;;;;;;5011687;28;38405;-76
2020/12/16 08:18:45;;;;;;;130.03;45.70;;;7.10;99.90;;;;;;5036615;28;37149;-77
2020/12/16 08:21:22;;;;;;;125.53;42.80;;;7.10;99.90;;;;;;5023434;28;38121;-77
2020/12/16 08:23:50;;;;;;;139.03;43.80;;;7.10;99.90;;;;;;5025680;28;39452;-77
2020/12/16 08:26:17;;;;;;;141.60;43.30;;;7.10;99.90;;;;;;5024304;28;38571;-77
2020/12/16 08:28:44;;;;;;;114.43;41.50;;;7.10;99.90;;;;;;5021444;28;38368;-78
2020/12/16 08:31:11;;;;;;;135.17;45.83;;;7.10;99.90;;;;;;5021290;28;37482;-78
2020/12/16 08:33:39;;;;;;;137.10;44.23;;;7.10;99.90;;;;;;5025345;28;39452;-78
2020/12/16 08:36:08;;;;;;;100.03;41.93;;;7.20;99.90;;;;;;5023710;28;37392;-78
2020/12/16 08:38:38;;;;;;;118.77;43.43;;;7.20;99.90;;;;;;5022456;28;37892;-77
2020/12/16 08:41:07;;;;;;;109.63;41.67;;;7.20;99.90;;;;;;5024877;28;37589;-77
2020/12/16 08:43:38;;;;;;;127.00;43.77;;;7.20;99.90;;;;;;5057312;28;37822;-78
2020/12/16 08:46:07;;;;;;;125.37;43.23;;;7.20;99.90;;;;;;5037276;28;37676;-77
2020/12/16 08:48:47;;;;;;;138.67;44.17;;;7.20;99.90;;;;;;5024091;28;37276;-78
2020/12/16 08:51:19;;;;;;;103.57;37.20;;;7.20;99.90;;;;;;5035529;28;37240;-78
2020/12/16 08:53:52;;;;;;;92.82;38.00;;;7.20;99.90;;;;;;5040506;28;37983;-78
2020/12/16 08:56:27;;;;;;;116.72;39.78;;;7.10;99.90;;;;;;5016062;28;37794;-78
2020/12/16 08:59:14;;;;;;;106.10;38.93;;;7.10;99.90;;;;;;5022639;28;37331;-78
2020/12/16 09:01:45;;;;;;;118.27;38.27;;;7.10;99.90;;;;;;5020854;28;48631;-76
2020/12/16 09:04:24;;;;;;;92.67;35.43;;;7.10;99.90;;;;;;5037742;28;37611;-78
2020/12/16 09:07:01;;;;;;;85.97;35.87;;;7.10;99.90;;;;;;5016650;28;38927;-77
2020/12/16 09:09:28;;;;;;;92.60;35.77;;;7.10;99.90;;;;;;5024803;28;47310;-77
2020/12/16 09:11:54;;;;;;;85.40;35.10;;;7.10;99.90;;;;;;5023181;28;38150;-76
2020/12/16 09:14:21;;;;;;;90.10;34.87;;;7.10;99.90;;;;;;5023051;28;38976;-77
2020/12/16 09:16:47;;;;;;;80.50;33.30;;;7.10;99.90;;;;;;5053348;28;37324;-78
2020/12/16 09:19:18;;;;;;;80.23;34.17;;;7.20;99.90;;;;;;5022188;28;38810;-78
2020/12/16 09:21:45;;;;;;;76.47;32.07;;;7.20;99.90;;;;;;5017626;28;37745;-77
2020/12/16 09:24:11;;;;;;;83.73;34.10;;;7.30;99.90;;;;;;5013978;28;38880;-78
2020/12/16 09:26:43;;;;;;;87.20;34.03;;;7.30;99.90;;;;;;5036754;28;39096;-77
2020/12/16 09:29:21;;;;;;;89.05;35.45;;;7.30;99.90;;;;;;5028844;28;38223;-77
2020/12/16 09:31:50;;;;;;;86.03;35.93;;;7.30;99.90;;;;;;5040450;28;36529;-77
2020/12/16 09:34:17;;;;;;;73.00;33.60;;;7.40;99.90;;;;;;5021966;28;37640;-76
2020/12/16 09:36:44;;;;;;;71.87;34.67;;;7.40;99.90;;;;;;5041492;28;37545;-77
2020/12/16 09:39:10;;;;;;;68.60;32.23;;;7.40;99.90;;;;;;5003882;28;37114;-77
2020/12/16 09:41:50;;;;;;;68.00;32.00;;;7.40;99.90;;;;;;4998661;28;35843;-78
2020/12/16 09:44:26;;;;;;;71.27;31.63;;;7.50;99.90;;;;;;5004105;28;39859;-77
2020/12/16 09:46:53;;;;;;;75.40;35.47;;;7.50;99.90;;;;;;5031014;28;39824;-78
2020/12/16 09:49:20;;;;;;;63.07;32.77;;;7.50;99.90;;;;;;5012597;28;38375;-77
2020/12/16 09:51:46;;;;;;;54.47;29.80;;;7.50;99.90;;;;;;5004327;28;36896;-77
2020/12/16 09:54:29;;;;;;;57.73;31.73;;;7.50;99.90;;;;;;5034924;28;38846;-77
2020/12/16 09:57:05;;;;;;;;;;;7.60;99.90;;;;;;5010130;28;38354;-77
2020/12/16 09:59:31;;;;;;;53.40;30.20;;;7.60;99.90;;;;;;5016596;28;48354;-77
2020/12/16 10:01:58;;;;;;;65.27;31.37;;;7.60;99.90;;;;;;5001710;28;35776;-77
2020/12/16 10:04:24;;;;;;;54.00;29.87;;;7.60;99.90;;;;;;5002696;28;38607;-78
2020/12/16 10:06:50;;;;;;;52.93;29.33;;;7.60;99.90;;;;;;5020341;28;37361;-78
2020/12/16 10:09:16;;;;;;;46.53;27.53;;;7.60;99.90;;;;;;5013408;28;38696;-80
2020/12/16 10:11:49;;;;;;;55.03;30.13;;;7.60;99.90;;;;;;5025277;28;37561;-80
2020/12/16 10:25:34;;;;;;;48.60;26.13;;;7.70;99.90;;;;;;4819117;29;48963;-79
2020/12/16 10:28:00;;;;;;;46.20;25.47;;;7.70;99.90;;;;;;4927473;28;47408;-79
2020/12/16 10:30:27;;;;;;;40.67;24.50;;;7.80;99.90;;;;;;4962192;28;37717;-79
2020/12/16 10:32:54;;;;;;;35.83;22.77;;;7.80;99.90;;;;;;5017012;28;35097;-80
2020/12/16 10:35:21;;;;;;;35.07;22.10;;;7.80;99.90;;;;;;5003532;28;38386;-79
2020/12/16 10:37:47;;;;;;;34.80;23.20;;;7.90;99.90;;;;;;5019853;28;38651;-80
2020/12/16 10:40:14;;;;;;;39.30;22.57;;;7.90;99.90;;;;;;5009979;28;39210;-80
2020/12/16 10:42:42;;;;;;;30.57;19.80;;;8.00;99.90;;;;;;5012030;28;38632;-79
2020/12/16 10:45:08;;;;;;;32.97;21.47;;;8.00;99.90;;;;;;5027830;28;37918;-78
2020/12/16 10:47:35;;;;;;;30.70;20.83;;;8.00;99.90;;;;;;5028642;28;37955;-79
2020/12/16 10:50:03;;;;;;;30.87;21.03;;;8.10;99.90;;;;;;5002435;28;37670;-78
2020/12/16 10:52:29;;;;;;;30.40;20.63;;;8.10;99.90;;;;;;5004777;28;38150;-78
2020/12/16 10:54:55;;;;;;;30.67;19.97;;;8.10;99.90;;;;;;5006999;28;37196;-77
2020/12/16 10:57:21;;;;;;;31.50;20.63;;;8.20;99.90;;;;;;5008048;28;37616;-78
2020/12/16 10:59:47;;;;;;;25.10;18.30;;;8.20;99.90;;;;;;5002225;28;40215;-78
2020/12/16 11:02:14;;;;;;;25.80;18.80;;;8.20;99.90;;;;;;5035233;28;36792;-79
2020/12/16 11:04:40;;;;;;;28.93;19.53;;;8.30;99.90;;;;;;5003783;28;36378;-79
2020/12/16 11:07:07;;;;;;;23.40;16.13;;;8.30;99.90;;;;;;5021593;28;37812;-78
2020/12/16 11:09:33;;;;;;;22.73;17.03;;;8.40;99.90;;;;;;5022303;28;37320;-79
2020/12/16 11:11:59;;;;;;;22.63;16.47;;;8.40;99.90;;;;;;5031080;28;39595;-79
2020/12/16 11:14:25;;;;;;;23.83;16.60;;;8.50;99.90;;;;;;5020843;28;37043;-79
2020/12/16 11:16:54;;;;;;;22.90;16.70;;;8.50;99.90;;;;;;5025248;28;38266;-79
2020/12/16 11:19:21;;;;;;;23.10;16.27;;;8.60;99.90;;;;;;5046698;28;38699;-78
2020/12/16 11:21:49;;;;;;;21.17;14.63;;;8.70;99.90;;;;;;5050073;28;37092;-79
2020/12/16 11:24:17;;;;;;;20.73;15.90;;;8.70;99.90;;;;;;5026639;28;37399;-79
2020/12/16 11:26:47;;;;;;;22.73;16.30;;;8.80;99.90;;;;;;5037582;28;37076;-78
2020/12/16 11:29:15;;;;;;;22.80;15.47;;;8.90;99.90;;;;;;5001837;28;38492;-78
2020/12/16 11:31:44;;;;;;;19.53;14.47;;;8.90;99.90;;;;;;5016993;28;38211;-79
2020/12/16 11:34:11;;;;;;;21.00;15.57;;;8.90;99.90;;;;;;5022893;28;36718;-79
2020/12/16 11:36:43;;;;;;;19.87;15.57;;;8.90;99.90;;;;;;5022498;28;38215;-78
2020/12/16 11:39:10;;;;;;;19.53;15.17;;;9.00;99.90;;;;;;5037753;28;37868;-78
2020/12/16 11:41:40;;;;;;;24.77;14.40;;;9.00;99.90;;;;;;5019105;28;39778;-78
2020/12/16 11:44:06;;;;;;;17.77;14.47;;;9.00;99.90;;;;;;5033587;28;38380;-78
2020/12/16 11:46:32;;;;;;;20.13;15.50;;;9.10;99.90;;;;;;5019814;28;38749;-78
2020/12/16 11:48:59;;;;;;;19.10;13.37;;;9.20;99.90;;;;;;5013783;28;38912;-78
2020/12/16 11:51:26;;;;;;;18.67;14.33;;;9.20;99.90;;;;;;5025015;28;38146;-77
2020/12/16 11:53:53;;;;;;;18.70;13.20;;;9.20;99.90;;;;;;5012802;28;37319;-77
2020/12/16 11:56:19;;;;;;;19.27;13.13;;;9.30;99.90;;;;;;5054273;28;38600;-77
2020/12/16 11:58:46;;;;;;;16.20;12.80;;;9.30;99.90;;;;;;5021905;28;39373;-77
2020/12/16 12:01:13;;;;;;;18.40;13.23;;;9.40;99.90;;;;;;5018385;28;38077;-78
2020/12/16 12:03:39;;;;;;;17.00;12.80;;;9.40;99.90;;;;;;5023631;28;37635;-76
2020/12/16 12:06:09;;;;;;;16.77;12.53;;;9.40;99.90;;;;;;5023007;28;36682;-78
2020/12/16 12:08:36;;;;;;;15.40;12.67;;;9.40;99.90;;;;;;5021306;28;39835;-79
2020/12/16 12:11:03;;;;;;;17.90;12.40;;;9.40;99.90;;;;;;5020058;28;35986;-77
2020/12/16 12:13:30;;;;;;;18.23;12.37;;;9.40;99.90;;;;;;5003608;28;38351;-78
2020/12/16 12:15:56;;;;;;;17.83;11.73;;;9.40;99.90;;;;;;5014970;28;37853;-78
2020/12/16 12:18:22;;;;;;;14.87;11.83;;;9.50;99.90;;;;;;5015928;28;38108;-78
2020/12/16 12:20:49;;;;;;;16.07;11.50;;;9.50;99.90;;;;;;5011658;28;38720;-78
2020/12/16 12:23:15;;;;;;;14.00;11.90;;;9.40;99.90;;;;;;5005779;28;37999;-78
2020/12/16 12:25:41;;;;;;;13.20;10.73;;;9.40;99.90;;;;;;5003540;28;38877;-78
2020/12/16 12:28:07;;;;;;;14.00;10.93;;;9.40;99.90;;;;;;5004452;28;37319;-78
2020/12/16 12:30:33;;;;;;;16.10;11.63;;;9.50;99.90;;;;;;5021217;28;37453;-78
2020/12/16 12:32:59;;;;;;;16.97;11.90;;;9.50;99.90;;;;;;5000659;28;38355;-78
2020/12/16 12:35:25;;;;;;;14.47;11.93;;;9.40;99.90;;;;;;5002479;28;38609;-77
2020/12/16 12:37:51;;;;;;;17.50;11.87;;;9.50;99.90;;;;;;4994403;28;37524;-78
2020/12/16 12:40:17;;;;;;;13.37;11.40;;;9.50;99.90;;;;;;5002608;28;38354;-76
2020/12/16 12:42:43;;;;;;;16.63;12.00;;;9.50;99.90;;;;;;4998102;28;37073;-79
2020/12/16 12:45:12;;;;;;;13.13;11.27;;;9.50;99.90;;;;;;5009159;28;37863;-78
2020/12/16 12:47:39;;;;;;;15.53;10.90;;;9.60;99.90;;;;;;5033521;28;37293;-78
2020/12/16 12:50:06;;;;;;;15.50;11.93;;;9.60;99.90;;;;;;5027602;28;38115;-78
2020/12/16 12:52:32;;;;;;;13.50;11.27;;;9.60;99.90;;;;;;5021020;28;37405;-77